Time;durP1;ratioP1;P1;durP2;ratioP2;P2;SDS_P1;SDS_P2;PMS_P1;PMS_P2;Temp;Humidity;BMP_temperature;BMP_pressure;BME280_temperature;BME280_humidity;BME280_pressure;Samples;Min_cycle;Max_cycle;Signal;HPM_P1;HPM_P2
2022/10/11 00:02:10;;;;;;;;;;;20.60;65.20;;;;;;5025849;28;1262;-68
2022/10/11 00:04:35;;;;;;;;;;;20.50;65.20;;;;;;5018972;28;1074;-68
2022/10/11 00:07:01;;;;;;;;;;;20.50;65.20;;;;;;5019990;28;1696;-68
2022/10/11 00:09:26;;;;;;;;;;;20.50;65.20;;;;;;5028514;28;865;-67
2022/10/11 00:11:53;;;;;;;;;;;20.50;65.20;;;;;;5018850;28;870;-68
2022/10/11 00:14:19;;;;;;;;;;;20.50;65.20;;;;;;5014924;28;898;-68
2022/10/11 00:16:45;;;;;;;;;;;20.50;65.30;;;;;;5014605;28;1911;-67
2022/10/11 00:19:10;;;;;;;;;;;20.50;65.30;;;;;;5016518;28;995;-67
2022/10/11 00:21:36;;;;;;;;;;;20.50;65.30;;;;;;5021915;28;851;-68
2022/10/11 00:24:01;;;;;;;;;;;20.50;65.30;;;;;;5031512;28;1003;-67
2022/10/11 00:26:27;;;;;;;;;;;20.60;65.40;;;;;;5018559;28;860;-67
2022/10/11 00:28:52;;;;;;;;;;;20.50;65.30;;;;;;5007970;28;1280;-68
2022/10/11 00:31:18;;;;;;;;;;;20.60;65.40;;;;;;5034671;28;710;-67
2022/10/11 00:33:43;;;;;;;;;;;20.50;65.30;;;;;;5031020;28;800;-68
2022/10/11 00:36:09;;;;;;;;;;;20.50;65.30;;;;;;5029390;28;1902;-68
2022/10/11 00:38:34;;;;;;;;;;;20.60;65.40;;;;;;5034418;28;1263;-68
2022/10/11 00:41:00;;;;;;;;;;;20.50;65.30;;;;;;5016426;28;792;-67
2022/10/11 00:43:26;;;;;;;;;;;20.50;65.30;;;;;;5022272;28;813;-68
2022/10/11 00:45:54;;;;;;;;;;;20.50;65.30;;;;;;5034083;28;872;-68
2022/10/11 00:48:42;;;;;;;;;;;20.50;65.30;;;;;;5028953;28;1165;-68
2022/10/11 00:51:19;;;;;;;;;;;20.50;65.30;;;;;;5008318;28;1224;-68
2022/10/11 00:53:45;;;;;;;;;;;20.50;65.40;;;;;;5023055;28;1101;-67
2022/10/11 00:56:16;;;;;;;;;;;20.50;65.30;;;;;;4990364;28;1930;-68
2022/10/11 00:58:42;;;;;;;;;;;20.50;65.30;;;;;;5016864;28;1327;-67
2022/10/11 01:01:07;;;;;;;;;;;20.50;65.40;;;;;;4999598;28;947;-67
2022/10/11 01:03:32;;;;;;;;;;;20.50;65.30;;;;;;5022492;28;863;-67
2022/10/11 01:05:58;;;;;;;;;;;20.50;65.40;;;;;;5000273;28;812;-67
2022/10/11 01:08:23;;;;;;;;;;;20.50;65.40;;;;;;5013839;28;1194;-68
2022/10/11 01:10:50;;;;;;;;;;;20.50;65.40;;;;;;5008944;28;1097;-67
2022/10/11 01:13:21;;;;;;;;;;;20.60;65.40;;;;;;5013716;28;863;-68
2022/10/11 01:15:54;;;;;;;;;;;20.50;65.40;;;;;;5020814;28;1922;-67
2022/10/11 01:18:38;;;;;;;;;;;20.50;65.40;;;;;;4996656;28;1220;-67
2022/10/11 01:21:22;;;;;;;;;;;20.50;65.40;;;;;;5013794;28;839;-68
2022/10/11 01:23:58;;;;;;;;;;;20.50;65.40;;;;;;5023210;28;983;-67
2022/10/11 01:26:43;;;;;;;;;;;20.50;65.40;;;;;;4999538;28;1026;-67
2022/10/11 01:29:08;;;;;;;;;;;20.50;65.40;;;;;;5013751;28;1062;-67
2022/10/11 01:31:55;;;;;;;;;;;20.50;65.40;;;;;;5013703;28;1018;-67
2022/10/11 01:34:31;;;;;;;;;;;20.50;65.40;;;;;;5026200;28;1100;-67
2022/10/11 01:36:59;;;;;;;;;;;20.50;65.50;;;;;;5015521;28;1966;-67
2022/10/11 01:39:28;;;;;;;;;;;20.50;66.20;;;;;;5030073;28;815;-68
2022/10/11 01:41:54;;;;;;;;;;;20.50;65.50;;;;;;5013400;28;892;-67
2022/10/11 01:44:19;;;;;;;;;;;20.50;65.50;;;;;;4995808;28;1042;-67
2022/10/11 01:46:45;;;;;;;;;;;20.50;65.50;;;;;;4999503;28;1331;-67
2022/10/11 01:49:10;;;;;;;;;;;20.50;65.50;;;;;;5016746;28;781;-67
2022/10/11 01:51:36;;;;;;;;;;;20.60;65.60;;;;;;5033099;28;1042;-68
2022/10/11 01:54:07;;;;;;;;;;;20.50;65.50;;;;;;5032858;28;1010;-67
2022/10/11 01:56:42;;;;;;;;;;;20.50;65.50;;;;;;5032852;28;1997;-68
2022/10/11 01:59:10;;;;;;;;;;;20.50;65.50;;;;;;5015438;28;1151;-68
2022/10/11 02:01:54;;;;;;;;;;;20.50;65.50;;;;;;5017466;28;967;-67
2022/10/11 02:04:22;;;;;;;;;;;20.50;65.50;;;;;;5013283;28;867;-67
2022/10/11 02:06:50;;;;;;;;;;;20.50;65.60;;;;;;5013176;28;1208;-67
2022/10/11 02:09:41;;;;;;;;;;;20.50;65.50;;;;;;5001957;28;1011;-67
2022/10/11 02:12:11;;;;;;;;;;;20.50;65.50;;;;;;5022251;28;1001;-68
2022/10/11 02:14:41;;;;;;;;;;;20.50;65.50;;;;;;4999326;28;908;-68
2022/10/11 02:17:07;;;;;;;;;;;20.50;65.50;;;;;;4995377;28;1973;-68
2022/10/11 02:19:37;;;;;;;;;;;20.50;65.50;;;;;;5024979;28;879;-67
2022/10/11 02:22:06;;;;;;;;;;;20.50;65.60;;;;;;5015264;28;851;-67
2022/10/11 02:24:32;;;;;;;;;;;20.50;65.60;;;;;;5023196;28;1098;-68
2022/10/11 02:26:58;;;;;;;;;;;20.60;65.60;;;;;;4995387;28;1335;-68
2022/10/11 02:29:24;;;;;;;;;;;20.50;65.50;;;;;;5015079;28;875;-68
2022/10/11 02:31:50;;;;;;;;;;;20.50;65.50;;;;;;5000339;28;939;-68
2022/10/11 02:34:34;;;;;;;;;;;20.50;65.60;;;;;;4999640;28;877;-68
2022/10/11 02:37:03;;;;;;;;;;;20.50;65.50;;;;;;5026101;28;1965;-68
2022/10/11 02:39:43;;;;;;;;;;;20.50;65.60;;;;;;5015008;28;828;-68
2022/10/11 02:42:11;;;;;;;;;;;20.60;65.60;;;;;;5032630;28;824;-68
2022/10/11 02:44:39;;;;;;;;;;;20.50;65.50;;;;;;5014990;28;1045;-68
2022/10/11 02:47:04;;;;;;;;;;;20.50;65.60;;;;;;5000166;28;1367;-67
2022/10/11 02:49:30;;;;;;;;;;;20.50;65.60;;;;;;5014048;28;1089;-68
2022/10/11 02:51:55;;;;;;;;;;;20.50;65.60;;;;;;5003423;28;1023;-68
2022/10/11 02:54:21;;;;;;;;;;;20.50;65.60;;;;;;5018087;28;789;-68
2022/10/11 02:56:46;;;;;;;;;;;20.50;65.60;;;;;;5012934;28;1894;-67
2022/10/11 02:59:12;;;;;;;;;;;20.50;65.60;;;;;;5026923;28;769;-68
2022/10/11 03:01:37;;;;;;;;;;;20.50;65.60;;;;;;5018031;28;883;-68
2022/10/11 03:04:03;;;;;;;;;;;20.50;65.60;;;;;;5016133;28;995;-67
2022/10/11 03:06:28;;;;;;;;;;;20.50;65.60;;;;;;5025012;28;833;-67
2022/10/11 03:08:54;;;;;;;;;;;20.50;65.60;;;;;;5024252;28;1323;-68
2022/10/11 03:11:19;;;;;;;;;;;20.50;65.60;;;;;;5016979;28;784;-67
2022/10/11 03:13:45;;;;;;;;;;;20.50;65.60;;;;;;5003914;28;866;-68
2022/10/11 03:16:10;;;;;;;;;;;20.50;65.70;;;;;;5023969;28;1922;-68
2022/10/11 03:18:35;;;;;;;;;;;20.60;65.70;;;;;;5019970;28;1372;-68
2022/10/11 03:21:01;;;;;;;;;;;20.60;65.60;;;;;;5007558;28;978;-68
2022/10/11 03:23:26;;;;;;;;;;;20.60;65.50;;;;;;5019249;28;984;-67
2022/10/11 03:25:52;;;;;;;;;;;20.60;65.50;;;;;;5005204;28;887;-68
2022/10/11 03:28:17;;;;;;;;;;;20.60;65.40;;;;;;5022051;28;1271;-67
2022/10/11 03:30:45;;;;;;;;;;;20.70;65.40;;;;;;5003437;28;1086;-69
2022/10/11 03:33:10;;;;;;;;;;;20.70;65.30;;;;;;5002280;28;1090;-69
2022/10/11 03:35:36;;;;;;;;;;;20.70;65.20;;;;;;5020214;28;998;-69
2022/10/11 03:38:01;;;;;;;;;;;20.70;65.10;;;;;;5022309;28;1902;-69
2022/10/11 03:40:27;;;;;;;;;;;20.80;65.10;;;;;;5020563;28;852;-69
2022/10/11 03:42:55;;;;;;;;;;;20.80;65.10;;;;;;5019276;28;878;-69
2022/10/11 03:45:20;;;;;;;;;;;20.80;65.00;;;;;;5018845;28;875;-69
2022/10/11 03:47:45;;;;;;;;;;;20.80;65.00;;;;;;5020462;28;1369;-69
2022/10/11 03:50:11;;;;;;;;;;;20.80;64.90;;;;;;5020351;28;1033;-68
2022/10/11 03:52:36;;;;;;;;;;;20.80;64.90;;;;;;5020698;28;896;-69
2022/10/11 03:55:02;;;;;;;;;;;20.80;64.90;;;;;;5021025;28;1026;-68
2022/10/11 03:57:28;;;;;;;;;;;20.80;64.80;;;;;;5005524;28;1902;-69
2022/10/11 03:59:53;;;;;;;;;;;20.80;64.80;;;;;;5006370;28;935;-68
2022/10/11 04:02:18;;;;;;;;;;;20.80;64.80;;;;;;5021681;28;1313;-68
2022/10/11 04:04:44;;;;;;;;;;;20.90;64.80;;;;;;5024586;28;812;-68
2022/10/11 04:07:09;;;;;;;;;;;20.90;64.80;;;;;;5021027;28;1196;-68
2022/10/11 04:09:35;;;;;;;;;;;20.90;64.80;;;;;;5022153;28;919;-68
2022/10/11 04:12:00;;;;;;;;;;;20.90;64.60;;;;;;5022567;28;902;-68
2022/10/11 04:14:26;;;;;;;;;;;21.00;64.50;;;;;;5021627;28;1313;-68
2022/10/11 04:16:51;;;;;;;;;;;21.10;64.50;;;;;;5018617;28;1969;-69
2022/10/11 04:19:17;;;;;;;;;;;21.20;64.40;;;;;;5022674;28;876;-68
2022/10/11 04:21:42;;;;;;;;;;;21.30;64.20;;;;;;5017732;28;939;-68
2022/10/11 04:24:08;;;;;;;;;;;21.40;64.00;;;;;;4990211;28;1447;-68
2022/10/11 04:26:34;;;;;;;;;;;21.50;63.70;;;;;;5008649;28;1245;-69
2022/10/11 04:28:59;;;;;;;;;;;21.60;63.50;;;;;;5022410;28;804;-67
2022/10/11 04:31:25;;;;;;;;;;;21.60;63.10;;;;;;5018486;28;1081;-68
2022/10/11 04:33:50;;;;;;;;;;;21.70;63.70;;;;;;5021874;28;853;-68
2022/10/11 04:36:16;;;;;;;;;;;21.80;62.80;;;;;;5021305;28;1967;-68
2022/10/11 04:38:41;;;;;;;;;;;21.80;62.50;;;;;;5019783;28;1296;-68
2022/10/11 04:41:07;;;;;;;;;;;22.00;62.30;;;;;;5018418;28;789;-68
2022/10/11 04:43:33;;;;;;;;;;;22.00;62.10;;;;;;5020671;28;1203;-69
2022/10/11 04:45:58;;;;;;;;;;;22.00;61.90;;;;;;5021772;28;849;-68
2022/10/11 04:48:23;;;;;;;;;;;22.10;61.80;;;;;;5025495;28;1311;-68
2022/10/11 04:50:49;;;;;;;;;;;22.10;61.70;;;;;;5016246;28;1050;-68
2022/10/11 04:53:14;;;;;;;;;;;22.10;61.50;;;;;;5016979;28;1069;-68
2022/10/11 04:55:40;;;;;;;;;;;22.20;61.50;;;;;;5019380;28;1170;-68
2022/10/11 04:58:05;;;;;;;;;;;22.20;62.20;;;;;;5019648;28;1989;-68
2022/10/11 05:00:31;;;;;;;;;;;22.20;61.40;;;;;;5017287;28;841;-69
2022/10/11 05:02:56;;;;;;;;;;;22.20;61.30;;;;;;5019226;28;1264;-69
2022/10/11 05:05:21;;;;;;;;;;;22.20;61.30;;;;;;5015841;28;824;-69
2022/10/11 05:07:47;;;;;;;;;;;22.20;61.30;;;;;;5018272;28;1269;-69
2022/10/11 05:10:13;;;;;;;;;;;22.30;61.40;;;;;;5017828;28;906;-69
2022/10/11 05:12:38;;;;;;;;;;;22.20;61.30;;;;;;5020096;28;871;-69
2022/10/11 05:15:04;;;;;;;;;;;22.20;61.30;;;;;;5021900;28;1062;-69
2022/10/11 05:17:31;;;;;;;;;;;22.20;61.30;;;;;;5019211;28;1938;-69
2022/10/11 05:19:56;;;;;;;;;;;22.20;61.30;;;;;;5018980;28;779;-68
2022/10/11 05:22:21;;;;;;;;;;;22.20;61.30;;;;;;5018112;28;950;-69
2022/10/11 05:24:47;;;;;;;;;;;22.20;61.30;;;;;;5005062;28;835;-69
2022/10/11 05:27:12;;;;;;;;;;;22.20;61.30;;;;;;5020861;28;1358;-68
2022/10/11 05:29:38;;;;;;;;;;;22.20;61.30;;;;;;5018970;28;911;-68
2022/10/11 05:32:03;;;;;;;;;;;22.20;61.30;;;;;;5018882;28;1425;-68
2022/10/11 05:34:29;;;;;;;;;;;22.20;61.30;;;;;;5016411;28;971;-68
2022/10/11 05:36:55;;;;;;;;;;;22.20;61.30;;;;;;5018536;28;1903;-68
2022/10/11 05:39:20;;;;;;;;;;;22.20;61.40;;;;;;5017668;28;855;-68
2022/10/11 05:41:46;;;;;;;;;;;22.20;61.50;;;;;;5014412;28;1010;-68
2022/10/11 05:44:11;;;;;;;;;;;22.20;61.50;;;;;;5003264;28;1322;-68
2022/10/11 05:46:37;;;;;;;;;;;22.20;61.50;;;;;;5018913;28;1267;-68
2022/10/11 05:49:02;;;;;;;;;;;22.10;61.60;;;;;;5001144;28;995;-68
2022/10/11 05:51:28;;;;;;;;;;;22.10;61.60;;;;;;5017196;28;1094;-68
2022/10/11 05:53:53;;;;;;;;;;;22.10;61.60;;;;;;5018232;28;834;-68
2022/10/11 05:56:20;;;;;;;;;;;22.10;61.70;;;;;;5017545;28;1906;-68
2022/10/11 05:58:45;;;;;;;;;;;22.10;61.80;;;;;;5018841;28;1365;-69
2022/10/11 06:01:23;;;;;;;;;;;22.10;61.90;;;;;;5015918;28;923;-68
2022/10/11 06:03:48;;;;;;;;;;;22.10;61.90;;;;;;5020025;28;1484;-68
2022/10/11 06:06:14;;;;;;;;;;;22.10;62.00;;;;;;5005514;28;1296;-67
2022/10/11 06:08:39;;;;;;;;;;;22.00;61.90;;;;;;5016804;28;1355;-68
2022/10/11 06:11:40;;;;;;;;;;;22.00;62.00;;;;;;5017905;28;1384;-68
2022/10/11 06:14:05;;;;;;;;;;;22.00;62.10;;;;;;4980747;28;1224;-68
2022/10/11 06:16:46;;;;;;;;;;;22.00;62.10;;;;;;4988255;28;1984;-68
2022/10/11 06:19:11;;;;;;;;;;;22.00;62.30;;;;;;5000914;28;900;-68
2022/10/11 06:21:37;;;;;;;;;;;21.90;62.20;;;;;;5014270;28;871;-68
2022/10/11 06:24:02;;;;;;;;;;;21.90;62.20;;;;;;5014211;28;857;-69
2022/10/11 06:26:28;;;;;;;;;;;21.90;62.40;;;;;;5016165;28;852;-68
2022/10/11 06:28:53;;;;;;;;;;;21.90;62.40;;;;;;5000121;28;1243;-68
2022/10/11 06:31:19;;;;;;;;;;;21.80;62.30;;;;;;5021497;28;1440;-68
2022/10/11 06:33:44;;;;;;;;;;;21.80;62.40;;;;;;5025361;28;931;-67
2022/10/11 06:36:10;;;;;;;;;;;21.90;62.50;;;;;;5020446;28;1894;-68
2022/10/11 06:38:36;;;;;;;;;;;21.90;62.70;;;;;;5020601;28;1329;-68
2022/10/11 06:41:11;;;;;;;;;;;21.80;62.60;;;;;;5018792;28;1081;-67
2022/10/11 06:43:36;;;;;;;;;;;21.90;62.70;;;;;;5004559;28;2133;-69
2022/10/11 06:46:02;;;;;;;;;;;21.90;62.80;;;;;;5012699;28;4149;-69
2022/10/11 06:48:30;;;;;;;;;;;21.80;62.70;;;;;;5021790;28;4432;-69
2022/10/11 06:50:58;;;;;;;;;;;21.90;62.80;;;;;;5003971;28;1822;-68
2022/10/11 06:53:24;;;;;;;;;;;21.90;62.70;;;;;;5022539;28;2133;-68
2022/10/11 06:55:49;;;;;;;;;;;21.90;62.60;;;;;;5005103;28;1898;-68
2022/10/11 06:58:15;;;;;;;;;;;21.90;62.70;;;;;;5025156;28;1851;-68
2022/10/11 07:00:40;;;;;;;;;;;22.00;62.70;;;;;;5025042;28;1328;-68
2022/10/11 07:03:06;;;;;;;;;;;21.90;62.60;;;;;;5020953;28;1421;-68
2022/10/11 07:05:31;;;;;;;;;;;22.00;62.60;;;;;;5005683;28;1349;-68
2022/10/11 07:07:57;;;;;;;;;;;22.00;62.60;;;;;;5024923;28;2466;-67
2022/10/11 07:10:22;;;;;;;;;;;22.00;63.10;;;;;;5025242;28;1342;-68
2022/10/11 07:12:48;;;;;;;;;;;22.00;63.50;;;;;;5006276;28;1418;-67
2022/10/11 07:15:13;;;;;;;;;;;22.00;63.70;;;;;;5025875;28;1751;-67
2022/10/11 07:17:39;;;;;;;;;;;22.00;63.70;;;;;;5022509;28;2019;-68
2022/10/11 07:20:05;;;;;;;;;;;22.00;64.10;;;;;;5024664;28;1421;-68
2022/10/11 07:22:30;;;;;;;;;;;22.00;63.90;;;;;;5010390;28;1530;-68
2022/10/11 07:24:56;;;;;;;;;;;22.00;64.00;;;;;;5020737;28;809;-67
2022/10/11 07:27:22;;;;;;;;;;;22.00;64.10;;;;;;5020991;28;1274;-68
2022/10/11 07:29:47;;;;;;;;;;;22.00;64.20;;;;;;5023163;28;849;-69
2022/10/11 07:32:13;;;;;;;;;;;22.00;64.40;;;;;;5024306;28;1411;-69
2022/10/11 07:34:38;;;;;;;;;;;22.00;64.40;;;;;;5020292;28;944;-69
2022/10/11 07:37:04;;;;;;;;;;;22.00;64.70;;;;;;5010497;28;1906;-69
2022/10/11 07:39:30;;;;;;;;;;;22.00;64.90;;;;;;5017735;28;1741;-68
2022/10/11 07:41:55;;;;;;;;;;;22.00;65.10;;;;;;5018934;28;948;-67
2022/10/11 07:44:21;;;;;;;;;;;22.00;65.20;;;;;;5016775;28;881;-67
2022/10/11 07:46:46;;;;;;;;;;;22.00;65.10;;;;;;5011727;28;1280;-67
2022/10/11 07:49:12;;;;;;;;;;;22.00;65.40;;;;;;5020777;28;979;-68
2022/10/11 07:51:37;;;;;;;;;;;22.00;65.60;;;;;;5017212;28;927;-67
2022/10/11 07:54:03;;;;;;;;;;;22.00;65.80;;;;;;5020638;28;1069;-68
2022/10/11 07:56:28;;;;;;;;;;;22.00;65.90;;;;;;5018537;28;1899;-67
2022/10/11 07:58:54;;;;;;;;;;;22.00;66.00;;;;;;5020314;28;1142;-68
2022/10/11 08:01:20;;;;;;;;;;;22.00;66.00;;;;;;5004810;28;845;-68
2022/10/11 08:03:45;;;;;;;;;;;22.00;66.10;;;;;;5024117;28;1341;-68
2022/10/11 08:06:12;;;;;;;;;;;22.00;66.40;;;;;;5020300;28;816;-67
2022/10/11 08:08:37;;;;;;;;;;;22.00;66.50;;;;;;5004460;28;1783;-68
2022/10/11 08:11:03;;;;;;;;;;;22.00;66.40;;;;;;5020919;28;900;-68
2022/10/11 08:13:28;;;;;;;;;;;22.00;66.60;;;;;;5002008;28;880;-68
2022/10/11 08:15:54;;;;;;;;;;;22.00;66.80;;;;;;5021284;28;1914;-68
2022/10/11 08:18:19;;;;;;;;;;;22.00;67.20;;;;;;5020050;28;1283;-68
2022/10/11 08:20:45;;;;;;;;;;;22.00;67.00;;;;;;5004306;28;2606;-67
2022/10/11 08:23:10;;;;;;;;;;;22.00;67.10;;;;;;5020576;28;777;-68
2022/10/11 08:25:37;;;;;;;;;;;22.00;67.00;;;;;;5021040;28;857;-67
2022/10/11 08:28:02;;;;;;;;;;;22.00;67.10;;;;;;5017753;28;1351;-67
2022/10/11 08:30:28;;;;;;;;;;;22.00;67.00;;;;;;5023914;28;790;-68
2022/10/11 08:32:53;;;;;;;;;;;22.00;67.00;;;;;;5017604;28;995;-68
2022/10/11 08:35:19;;;;;;;;;;;22.00;66.80;;;;;;5019353;28;852;-68
2022/10/11 08:37:44;;;;;;;;;;;22.00;66.80;;;;;;5017666;28;1898;-67
2022/10/11 08:40:12;;;;;;;;;;;22.00;66.80;;;;;;5015837;28;1093;-67
2022/10/11 08:42:38;;;;;;;;;;;22.00;66.80;;;;;;4998283;28;1089;-68
2022/10/11 08:45:08;;;;;;;;;;;22.10;66.80;;;;;;5003187;28;1002;-68
2022/10/11 08:47:38;;;;;;;;;;;22.10;66.90;;;;;;5000916;28;1350;-68
2022/10/11 08:50:04;;;;;;;;;;;22.00;66.90;;;;;;5002740;28;1113;-68
2022/10/11 08:52:33;;;;;;;;;;;22.00;66.80;;;;;;5001242;28;852;-67
2022/10/11 08:55:03;;;;;;;;;;;22.00;67.10;;;;;;5018502;28;846;-67
2022/10/11 08:57:28;;;;;;;;;;;22.00;66.80;;;;;;4997161;28;1927;-68
2022/10/11 08:59:57;;;;;;;;;;;22.00;66.80;;;;;;5004346;28;924;-68
2022/10/11 09:02:41;;;;;;;;;;;22.00;66.70;;;;;;5020992;28;1253;-68
2022/10/11 09:05:09;;;;;;;;;;;22.00;67.60;;;;;;5019306;28;1047;-68
2022/10/11 09:07:34;;;;;;;;;;;21.90;66.80;;;;;;5016935;28;1303;-68
2022/10/11 09:10:06;;;;;;;;;;;21.90;66.90;;;;;;5020136;28;911;-68
2022/10/11 09:12:31;;;;;;;;;;;21.90;67.10;;;;;;5017974;28;862;-68
2022/10/11 09:15:00;;;;;;;;;;;21.90;67.20;;;;;;5015147;28;818;-68
2022/10/11 09:17:34;;;;;;;;;;;21.90;67.30;;;;;;5003359;28;1958;-67
2022/10/11 09:20:18;;;;;;;;;;;21.90;67.60;;;;;;5017427;28;824;-67
2022/10/11 09:22:47;;;;;;;;;;;21.80;68.00;;;;;;5009096;28;1802;-67
2022/10/11 09:25:17;;;;;;;;;;;21.90;68.30;;;;;;5020284;28;854;-67
2022/10/11 09:27:49;;;;;;;;;;;21.80;68.30;;;;;;5004379;28;1358;-67
2022/10/11 09:30:15;;;;;;;;;;;21.80;68.80;;;;;;5014599;28;916;-67
2022/10/11 09:32:41;;;;;;;;;;;21.90;69.40;;;;;;5021836;28;1446;-68
2022/10/11 09:35:17;;;;;;;;;;;21.90;69.80;;;;;;5019922;28;895;-68
2022/10/11 09:37:49;;;;;;;;;;;21.90;69.80;;;;;;5000389;28;1969;-68
2022/10/11 09:40:23;;;;;;;;;;;21.90;70.10;;;;;;5018312;28;813;-67
2022/10/11 09:42:48;;;;;;;;;;;21.90;70.00;;;;;;5016645;28;840;-68
2022/10/11 09:45:16;;;;;;;;;;;21.80;70.10;;;;;;5019036;28;836;-68
2022/10/11 09:47:42;;;;;;;;;;;21.90;70.20;;;;;;5000435;28;1288;-68
2022/10/11 09:50:14;;;;;;;;;;;21.80;70.20;;;;;;5018650;28;876;-68
2022/10/11 09:52:49;;;;;;;;;;;21.80;70.30;;;;;;4999909;28;913;-68
2022/10/11 09:55:28;;;;;;;;;;;21.80;70.30;;;;;;5003156;28;821;-68
2022/10/11 09:57:53;;;;;;;;;;;21.90;70.20;;;;;;5001891;28;1965;-69
2022/10/11 10:00:20;;;;;;;;;;;21.80;70.30;;;;;;5001570;28;1278;-68
2022/10/11 10:02:47;;;;;;;;;;;21.80;70.30;;;;;;5015453;28;1003;-68
2022/10/11 10:05:14;;;;;;;;;;;21.80;70.30;;;;;;5019455;28;1308;-68
2022/10/11 10:07:42;;;;;;;;;;;21.80;70.50;;;;;;5003569;28;1289;-67
2022/10/11 10:10:34;;;;;;;;;;;21.80;70.20;;;;;;5003767;28;1079;-68
2022/10/11 10:13:03;;;;;;;;;;;21.80;70.20;;;;;;5011088;28;1160;-67
2022/10/11 10:15:29;;;;;;;;;;;21.90;70.40;;;;;;5017134;28;977;-68
2022/10/11 10:17:55;;;;;;;;;;;21.90;70.40;;;;;;4999291;28;1907;-68
2022/10/11 10:20:24;;;;;;;;;;;21.90;70.70;;;;;;5018680;28;917;-68
2022/10/11 10:22:49;;;;;;;;;;;21.90;70.50;;;;;;5014963;28;864;-67
2022/10/11 10:25:23;;;;;;;;;;;21.80;70.40;;;;;;4998211;28;1127;-68
2022/10/11 10:27:56;;;;;;;;;;;21.80;70.40;;;;;;5003814;28;1347;-68
2022/10/11 10:30:22;;;;;;;;;;;21.80;70.60;;;;;;5019003;28;863;-68
2022/10/11 10:33:15;;;;;;;;;;;21.80;70.70;;;;;;5018008;28;1105;-68
2022/10/11 10:35:43;;;;;;;;;;;21.80;70.40;;;;;;5012206;28;1200;-67
2022/10/11 10:38:11;;;;;;;;;;;21.80;70.60;;;;;;5002215;28;1914;-67
2022/10/11 10:40:41;;;;;;;;;;;21.80;70.70;;;;;;5018106;28;966;-68
2022/10/11 10:43:14;;;;;;;;;;;21.80;70.80;;;;;;5000997;28;960;-67
2022/10/11 10:45:55;;;;;;;;;;;21.90;70.50;;;;;;5003659;28;836;-67
2022/10/11 10:48:38;;;;;;;;;;;22.00;70.40;;;;;;5018735;28;1213;-67
2022/10/11 10:51:08;;;;;;;;;;;22.00;70.00;;;;;;5000420;28;919;-67
2022/10/11 10:53:38;;;;;;;;;;;22.00;69.80;;;;;;4997812;28;1066;-66
2022/10/11 10:56:11;;;;;;;;;;;22.00;69.60;;;;;;5015163;28;1958;-67
2022/10/11 10:58:55;;;;;;;;;;;22.00;69.60;;;;;;5000200;28;1370;-67
2022/10/11 11:01:24;;;;;;;;;;;21.90;69.80;;;;;;5014709;28;943;-67
2022/10/11 11:03:54;;;;;;;;;;;21.90;69.80;;;;;;5017065;28;1258;-67
2022/10/11 11:06:20;;;;;;;;;;;21.90;69.80;;;;;;4989536;28;1370;-67
2022/10/11 11:08:48;;;;;;;;;;;21.90;69.80;;;;;;5015708;28;1271;-67
2022/10/11 11:11:28;;;;;;;;;;;21.90;70.00;;;;;;5017438;28;864;-67
2022/10/11 11:14:13;;;;;;;;;;;21.90;70.10;;;;;;5014615;28;884;-67
2022/10/11 11:16:50;;;;;;;;;;;21.90;70.30;;;;;;4997119;28;1962;-67
2022/10/11 11:19:34;;;;;;;;;;;21.90;70.50;;;;;;4999838;28;1023;-67
2022/10/11 11:22:08;;;;;;;;;;;21.80;70.40;;;;;;5019017;28;1150;-67
2022/10/11 11:24:54;;;;;;;;;;;21.80;70.60;;;;;;5021549;28;1085;-67
2022/10/11 11:27:29;;;;;;;;;;;21.80;70.70;;;;;;4999129;28;1246;-67
2022/10/11 11:29:56;;;;;;;;;;;21.80;71.00;;;;;;5021414;28;883;-67
2022/10/11 11:32:25;;;;;;;;;;;21.80;71.10;;;;;;5021284;28;997;-67
2022/10/11 11:34:57;;;;;;;;;;;21.80;71.10;;;;;;5021453;28;995;-67
2022/10/11 11:37:40;;;;;;;;;;;21.80;71.30;;;;;;5019021;28;1890;-67
2022/10/11 11:40:15;;;;;;;;;;;21.80;71.50;;;;;;4997296;28;1051;-67
2022/10/11 11:42:42;;;;;;;;;;;21.80;71.70;;;;;;5021122;28;911;-68
2022/10/11 11:45:19;;;;;;;;;;;21.80;71.70;;;;;;5007070;28;950;-68
2022/10/11 11:47:46;;;;;;;;;;;21.80;71.80;;;;;;5018796;28;1223;-67
2022/10/11 11:50:14;;;;;;;;;;;21.80;71.80;;;;;;5004920;28;1019;-67
2022/10/11 11:52:44;;;;;;;;;;;21.80;71.70;;;;;;5020734;28;895;-68
2022/10/11 11:55:10;;;;;;;;;;;21.80;71.60;;;;;;5004836;28;1409;-67
2022/10/11 11:57:56;;;;;;;;;;;21.80;71.50;;;;;;5017818;28;1910;-68
2022/10/11 12:00:22;;;;;;;;;;;21.80;71.30;;;;;;5003965;28;893;-68
2022/10/11 12:02:56;;;;;;;;;;;21.80;71.10;;;;;;4989281;28;4045;-67
2022/10/11 12:05:26;;;;;;;;;;;21.80;71.30;;;;;;5018783;28;876;-68
2022/10/11 12:07:53;;;;;;;;;;;21.80;71.20;;;;;;5002139;28;1242;-67
2022/10/11 12:10:23;;;;;;;;;;;21.80;71.30;;;;;;5000765;28;1062;-68
2022/10/11 12:12:49;;;;;;;;;;;21.80;71.00;;;;;;5006779;28;979;-68
2022/10/11 12:15:16;;;;;;;;;;;21.80;71.00;;;;;;5002087;28;1318;-68
2022/10/11 12:17:54;;;;;;;;;;;21.80;71.20;;;;;;5005357;28;1977;-68
2022/10/11 12:20:26;;;;;;;;;;;21.80;71.00;;;;;;5020896;28;816;-69
2022/10/11 12:22:52;;;;;;;;;;;21.80;71.10;;;;;;5008532;28;864;-69
2022/10/11 12:25:20;;;;;;;;;;;21.80;71.20;;;;;;5020621;28;871;-69
2022/10/11 12:27:45;;;;;;;;;;;21.80;71.30;;;;;;5016315;28;1362;-69
2022/10/11 12:30:30;;;;;;;;;;;21.80;71.40;;;;;;5021057;28;812;-69
2022/10/11 12:33:01;;;;;;;;;;;21.80;71.40;;;;;;5020334;28;1402;-69
2022/10/11 12:35:34;;;;;;;;;;;21.80;71.60;;;;;;5003304;28;800;-69
2022/10/11 12:38:13;;;;;;;;;;;21.80;71.60;;;;;;5003227;28;1910;-69
2022/10/11 12:40:42;;;;;;;;;;;21.80;71.80;;;;;;5019392;28;958;-69
2022/10/11 12:43:21;;;;;;;;;;;21.80;72.00;;;;;;5020047;28;853;-68
2022/10/11 12:45:46;;;;;;;;;;;21.80;71.80;;;;;;5000477;28;904;-68
2022/10/11 12:48:30;;;;;;;;;;;21.80;71.60;;;;;;5020801;28;1333;-68
2022/10/11 12:51:05;;;;;;;;;;;21.90;71.50;;;;;;5017117;28;1339;-69
2022/10/11 12:53:34;;;;;;;;;;;21.90;71.30;;;;;;5018628;28;895;-68
2022/10/11 12:56:05;;;;;;;;;;;21.90;70.90;;;;;;5002327;28;1042;-68
2022/10/11 12:58:32;;;;;;;;;;;21.80;70.90;;;;;;5016436;28;1341;-68
2022/10/11 13:00:58;;;;;;;;;;;21.80;70.90;;;;;;5019185;28;876;-68
2022/10/11 13:03:30;;;;;;;;;;;21.80;71.00;;;;;;5018967;28;1328;-69
2022/10/11 13:05:56;;;;;;;;;;;21.70;71.10;;;;;;5001731;28;1639;-68
2022/10/11 13:08:24;;;;;;;;;;;21.80;71.30;;;;;;5006579;28;1245;-69
2022/10/11 13:10:49;;;;;;;;;;;21.80;71.40;;;;;;5002780;28;906;-69
2022/10/11 13:13:22;;;;;;;;;;;21.70;71.40;;;;;;5021591;28;816;-68
2022/10/11 13:15:48;;;;;;;;;;;21.70;71.30;;;;;;5000222;28;1022;-68
2022/10/11 13:18:14;;;;;;;;;;;21.70;71.20;;;;;;5023617;28;1898;-69
2022/10/11 13:20:39;;;;;;;;;;;21.70;71.10;;;;;;5003574;28;1511;-68
2022/10/11 13:23:23;;;;;;;;;;;21.70;71.00;;;;;;5020437;28;791;-68
2022/10/11 13:25:49;;;;;;;;;;;21.70;71.00;;;;;;5019871;28;813;-69
2022/10/11 13:28:14;;;;;;;;;;;21.70;71.00;;;;;;5018801;28;1243;-69
2022/10/11 13:30:44;;;;;;;;;;;21.70;71.00;;;;;;5019824;28;840;-69
2022/10/11 13:33:32;;;;;;;;;;;21.70;71.00;;;;;;5017827;28;1379;-68
2022/10/11 13:36:01;;;;;;;;;;;21.70;71.10;;;;;;5005575;28;858;-68
2022/10/11 13:38:28;;;;;;;;;;;21.70;71.00;;;;;;5002989;28;1357;-68
2022/10/11 13:40:54;;;;;;;;;;;21.70;71.00;;;;;;5000930;28;1090;-68
2022/10/11 13:43:21;;;;;;;;;;;21.70;70.90;;;;;;5016328;28;895;-68
2022/10/11 13:45:46;;;;;;;;;;;21.70;71.10;;;;;;5003116;28;849;-68
2022/10/11 13:48:12;;;;;;;;;;;21.70;71.30;;;;;;5021345;28;1263;-69
2022/10/11 13:50:38;;;;;;;;;;;21.70;71.40;;;;;;5000055;28;919;-69
2022/10/11 13:53:21;;;;;;;;;;;21.70;71.20;;;;;;5004375;28;887;-69
2022/10/11 13:55:48;;;;;;;;;;;21.70;71.40;;;;;;5019549;28;914;-69
2022/10/11 13:58:25;;;;;;;;;;;21.70;71.50;;;;;;5001124;28;1950;-69
2022/10/11 14:00:52;;;;;;;;;;;21.70;71.50;;;;;;5000082;28;802;-68
2022/10/11 14:03:18;;;;;;;;;;;21.70;71.50;;;;;;4994629;28;1379;-69
2022/10/11 14:05:50;;;;;;;;;;;21.60;71.60;;;;;;5002074;28;855;-69
2022/10/11 14:08:34;;;;;;;;;;;21.60;71.50;;;;;;5002609;28;1282;-68
2022/10/11 14:10:59;;;;;;;;;;;21.60;71.70;;;;;;5019665;28;929;-68
2022/10/11 14:13:41;;;;;;;;;;;21.60;71.80;;;;;;5002155;28;1425;-69
2022/10/11 14:16:26;;;;;;;;;;;21.60;72.10;;;;;;5017209;28;1914;-68
2022/10/11 14:18:54;;;;;;;;;;;21.60;72.30;;;;;;5018015;28;1418;-69
2022/10/11 14:21:27;;;;;;;;;;;21.60;72.30;;;;;;5018049;28;2242;-69
2022/10/11 14:23:54;;;;;;;;;;;21.60;72.30;;;;;;4996596;28;1414;-68
2022/10/11 14:26:20;;;;;;;;;;;21.70;72.30;;;;;;5018963;28;864;-68
2022/10/11 14:28:50;;;;;;;;;;;21.70;72.30;;;;;;5005103;28;1347;-68
2022/10/11 14:31:16;;;;;;;;;;;21.70;72.30;;;;;;4999426;28;1483;-68
2022/10/11 14:33:41;;;;;;;;;;;21.70;72.50;;;;;;4999965;28;2129;-68
2022/10/11 14:36:06;;;;;;;;;;;21.70;72.60;;;;;;5019835;28;1930;-68
2022/10/11 14:38:32;;;;;;;;;;;21.70;72.60;;;;;;5000679;28;1985;-68
2022/10/11 14:40:57;;;;;;;;;;;21.70;72.50;;;;;;5019723;28;2233;-68
2022/10/11 14:43:23;;;;;;;;;;;21.70;72.30;;;;;;5017473;28;2241;-68
2022/10/11 14:45:48;;;;;;;;;;;21.70;72.50;;;;;;5019349;28;2255;-68